sensor_id;sensor_type;location;lat;lon;timestamp;P1;durP1;ratioP1;P2;durP2;ratioP2
3757;SDS011;1894;51.038;13.692;2022-12-13T00:01:47;16.37;;;9.20;;
3757;SDS011;1894;51.038;13.692;2022-12-13T00:04:18;11.50;;;8.07;;
3757;SDS011;1894;51.038;13.692;2022-12-13T00:06:47;16.90;;;9.03;;
3757;SDS011;1894;51.038;13.692;2022-12-13T00:09:16;14.90;;;8.60;;
3757;SDS011;1894;51.038;13.692;2022-12-13T00:11:46;15.97;;;9.60;;
3757;SDS011;1894;51.038;13.692;2022-12-13T00:14:15;15.37;;;9.43;;
3757;SDS011;1894;51.038;13.692;2022-12-13T00:16:46;11.90;;;7.60;;
3757;SDS011;1894;51.038;13.692;2022-12-13T00:19:14;16.87;;;8.33;;
3757;SDS011;1894;51.038;13.692;2022-12-13T00:21:42;17.60;;;10.90;;
3757;SDS011;1894;51.038;13.692;2022-12-13T00:24:10;17.97;;;8.77;;
3757;SDS011;1894;51.038;13.692;2022-12-13T00:26:38;15.87;;;9.73;;
3757;SDS011;1894;51.038;13.692;2022-12-13T00:29:06;12.10;;;8.30;;
3757;SDS011;1894;51.038;13.692;2022-12-13T00:31:33;14.37;;;8.10;;
3757;SDS011;1894;51.038;13.692;2022-12-13T00:34:21;14.67;;;8.10;;
3757;SDS011;1894;51.038;13.692;2022-12-13T00:36:49;14.53;;;9.10;;
3757;SDS011;1894;51.038;13.692;2022-12-13T00:39:16;14.30;;;8.90;;
3757;SDS011;1894;51.038;13.692;2022-12-13T00:41:44;13.00;;;8.03;;
3757;SDS011;1894;51.038;13.692;2022-12-13T00:44:12;12.17;;;8.10;;
3757;SDS011;1894;51.038;13.692;2022-12-13T00:46:39;16.20;;;9.77;;
3757;SDS011;1894;51.038;13.692;2022-12-13T00:49:08;13.20;;;8.63;;
3757;SDS011;1894;51.038;13.692;2022-12-13T00:51:36;14.07;;;8.93;;
3757;SDS011;1894;51.038;13.692;2022-12-13T00:54:04;14.53;;;8.80;;
3757;SDS011;1894;51.038;13.692;2022-12-13T00:56:32;12.93;;;8.43;;
3757;SDS011;1894;51.038;13.692;2022-12-13T00:59:00;11.33;;;7.73;;
3757;SDS011;1894;51.038;13.692;2022-12-13T01:01:28;15.50;;;8.77;;
3757;SDS011;1894;51.038;13.692;2022-12-13T01:04:00;16.53;;;9.40;;
3757;SDS011;1894;51.038;13.692;2022-12-13T01:06:37;13.63;;;7.93;;
3757;SDS011;1894;51.038;13.692;2022-12-13T01:09:13;9.30;;;6.00;;
3757;SDS011;1894;51.038;13.692;2022-12-13T01:11:44;11.10;;;7.50;;
3757;SDS011;1894;51.038;13.692;2022-12-13T01:14:12;12.70;;;8.63;;
3757;SDS011;1894;51.038;13.692;2022-12-13T01:16:40;13.60;;;9.40;;
3757;SDS011;1894;51.038;13.692;2022-12-13T01:19:07;15.93;;;9.77;;
3757;SDS011;1894;51.038;13.692;2022-12-13T01:21:34;15.83;;;10.20;;
3757;SDS011;1894;51.038;13.692;2022-12-13T01:24:02;12.30;;;8.70;;
3757;SDS011;1894;51.038;13.692;2022-12-13T01:26:31;15.13;;;8.90;;
3757;SDS011;1894;51.038;13.692;2022-12-13T01:28:59;14.87;;;9.77;;
3757;SDS011;1894;51.038;13.692;2022-12-13T01:31:27;17.13;;;9.90;;
3757;SDS011;1894;51.038;13.692;2022-12-13T01:33:54;16.60;;;10.53;;
3757;SDS011;1894;51.038;13.692;2022-12-13T01:36:22;16.20;;;9.47;;
3757;SDS011;1894;51.038;13.692;2022-12-13T01:38:54;17.23;;;10.53;;
3757;SDS011;1894;51.038;13.692;2022-12-13T01:41:24;14.50;;;10.40;;
3757;SDS011;1894;51.038;13.692;2022-12-13T01:44:01;15.30;;;10.30;;
3757;SDS011;1894;51.038;13.692;2022-12-13T01:46:33;13.73;;;9.03;;
3757;SDS011;1894;51.038;13.692;2022-12-13T01:49:09;14.60;;;9.60;;
3757;SDS011;1894;51.038;13.692;2022-12-13T01:51:54;12.33;;;9.20;;
3757;SDS011;1894;51.038;13.692;2022-12-13T01:54:28;19.03;;;10.67;;
3757;SDS011;1894;51.038;13.692;2022-12-13T01:57:00;12.87;;;8.30;;
3757;SDS011;1894;51.038;13.692;2022-12-13T01:59:45;15.30;;;9.30;;
3757;SDS011;1894;51.038;13.692;2022-12-13T02:02:14;16.00;;;9.50;;
3757;SDS011;1894;51.038;13.692;2022-12-13T02:04:48;13.37;;;9.33;;
3757;SDS011;1894;51.038;13.692;2022-12-13T02:07:30;14.67;;;9.40;;
3757;SDS011;1894;51.038;13.692;2022-12-13T02:10:00;14.60;;;9.13;;
3757;SDS011;1894;51.038;13.692;2022-12-13T02:12:31;17.33;;;9.70;;
3757;SDS011;1894;51.038;13.692;2022-12-13T02:15:10;15.47;;;8.87;;
3757;SDS011;1894;51.038;13.692;2022-12-13T02:17:53;15.67;;;9.80;;
3757;SDS011;1894;51.038;13.692;2022-12-13T02:26:47;13.20;;;8.50;;
3757;SDS011;1894;51.038;13.692;2022-12-13T02:29:35;12.77;;;8.33;;
3757;SDS011;1894;51.038;13.692;2022-12-13T02:34:50;13.10;;;8.00;;
3757;SDS011;1894;51.038;13.692;2022-12-13T02:37:49;15.27;;;8.63;;
3757;SDS011;1894;51.038;13.692;2022-12-13T02:40:29;15.60;;;8.57;;
3757;SDS011;1894;51.038;13.692;2022-12-13T02:43:06;14.20;;;8.63;;
3757;SDS011;1894;51.038;13.692;2022-12-13T02:45:48;13.67;;;8.77;;
3757;SDS011;1894;51.038;13.692;2022-12-13T02:48:29;17.50;;;9.70;;
3757;SDS011;1894;51.038;13.692;2022-12-13T02:51:01;15.23;;;9.60;;
3757;SDS011;1894;51.038;13.692;2022-12-13T02:53:32;16.17;;;10.10;;
3757;SDS011;1894;51.038;13.692;2022-12-13T02:56:00;17.33;;;9.53;;
3757;SDS011;1894;51.038;13.692;2022-12-13T02:58:34;16.13;;;10.17;;
3757;SDS011;1894;51.038;13.692;2022-12-13T03:10:05;13.77;;;9.80;;
3757;SDS011;1894;51.038;13.692;2022-12-13T03:12:55;13.53;;;8.90;;
3757;SDS011;1894;51.038;13.692;2022-12-13T03:18:57;19.23;;;10.90;;
3757;SDS011;1894;51.038;13.692;2022-12-13T03:21:27;18.43;;;10.73;;
3757;SDS011;1894;51.038;13.692;2022-12-13T03:23:55;19.40;;;10.00;;
3757;SDS011;1894;51.038;13.692;2022-12-13T03:26:25;18.60;;;11.80;;
3757;SDS011;1894;51.038;13.692;2022-12-13T03:28:53;17.77;;;10.17;;
3757;SDS011;1894;51.038;13.692;2022-12-13T03:31:20;15.67;;;9.40;;
3757;SDS011;1894;51.038;13.692;2022-12-13T03:33:47;16.17;;;10.87;;
3757;SDS011;1894;51.038;13.692;2022-12-13T03:36:15;20.90;;;11.50;;
3757;SDS011;1894;51.038;13.692;2022-12-13T03:38:44;17.47;;;10.20;;
3757;SDS011;1894;51.038;13.692;2022-12-13T03:41:14;12.10;;;8.50;;
3757;SDS011;1894;51.038;13.692;2022-12-13T03:43:44;19.87;;;10.87;;
3757;SDS011;1894;51.038;13.692;2022-12-13T03:46:12;19.77;;;10.73;;
3757;SDS011;1894;51.038;13.692;2022-12-13T03:48:39;19.97;;;9.50;;
3757;SDS011;1894;51.038;13.692;2022-12-13T03:51:06;14.73;;;10.27;;
3757;SDS011;1894;51.038;13.692;2022-12-13T03:53:33;19.23;;;10.27;;
3757;SDS011;1894;51.038;13.692;2022-12-13T03:56:04;16.90;;;9.60;;
3757;SDS011;1894;51.038;13.692;2022-12-13T03:58:32;16.83;;;9.97;;
3757;SDS011;1894;51.038;13.692;2022-12-13T04:01:07;18.73;;;10.10;;
3757;SDS011;1894;51.038;13.692;2022-12-13T04:03:38;18.83;;;11.03;;
3757;SDS011;1894;51.038;13.692;2022-12-13T04:06:07;18.50;;;10.93;;
3757;SDS011;1894;51.038;13.692;2022-12-13T04:08:35;17.97;;;9.80;;
3757;SDS011;1894;51.038;13.692;2022-12-13T04:11:04;17.23;;;9.90;;
3757;SDS011;1894;51.038;13.692;2022-12-13T04:13:52;20.60;;;12.20;;
3757;SDS011;1894;51.038;13.692;2022-12-13T04:16:20;19.80;;;11.57;;
3757;SDS011;1894;51.038;13.692;2022-12-13T04:18:49;20.40;;;11.73;;
3757;SDS011;1894;51.038;13.692;2022-12-13T04:21:16;19.30;;;11.10;;
3757;SDS011;1894;51.038;13.692;2022-12-13T04:23:44;20.10;;;11.50;;
3757;SDS011;1894;51.038;13.692;2022-12-13T04:26:11;19.30;;;12.37;;
3757;SDS011;1894;51.038;13.692;2022-12-13T04:28:38;17.33;;;9.80;;
3757;SDS011;1894;51.038;13.692;2022-12-13T04:31:05;24.13;;;11.80;;
3757;SDS011;1894;51.038;13.692;2022-12-13T04:33:33;24.53;;;11.00;;
3757;SDS011;1894;51.038;13.692;2022-12-13T04:36:00;26.20;;;12.80;;
3757;SDS011;1894;51.038;13.692;2022-12-13T04:38:28;60.60;;;23.30;;
3757;SDS011;1894;51.038;13.692;2022-12-13T04:41:05;56.23;;;22.50;;
3757;SDS011;1894;51.038;13.692;2022-12-13T04:43:34;38.17;;;18.53;;
3757;SDS011;1894;51.038;13.692;2022-12-13T04:46:01;35.00;;;16.10;;
3757;SDS011;1894;51.038;13.692;2022-12-13T04:48:28;26.87;;;15.37;;
3757;SDS011;1894;51.038;13.692;2022-12-13T04:50:57;30.30;;;15.50;;
3757;SDS011;1894;51.038;13.692;2022-12-13T04:53:27;30.30;;;13.47;;
3757;SDS011;1894;51.038;13.692;2022-12-13T04:55:55;25.77;;;13.03;;
3757;SDS011;1894;51.038;13.692;2022-12-13T04:58:22;23.40;;;13.97;;
3757;SDS011;1894;51.038;13.692;2022-12-13T05:00:49;21.77;;;12.20;;
3757;SDS011;1894;51.038;13.692;2022-12-13T05:03:17;21.10;;;11.13;;
3757;SDS011;1894;51.038;13.692;2022-12-13T05:05:44;16.50;;;9.30;;
3757;SDS011;1894;51.038;13.692;2022-12-13T05:08:11;20.60;;;10.97;;
3757;SDS011;1894;51.038;13.692;2022-12-13T05:10:38;21.37;;;11.77;;
3757;SDS011;1894;51.038;13.692;2022-12-13T05:13:06;23.70;;;11.27;;
3757;SDS011;1894;51.038;13.692;2022-12-13T05:15:33;24.87;;;12.20;;
3757;SDS011;1894;51.038;13.692;2022-12-13T05:18:04;20.97;;;10.67;;
3757;SDS011;1894;51.038;13.692;2022-12-13T05:20:36;23.40;;;11.30;;
3757;SDS011;1894;51.038;13.692;2022-12-13T05:23:05;26.77;;;10.63;;
3757;SDS011;1894;51.038;13.692;2022-12-13T05:25:32;19.03;;;9.70;;
3757;SDS011;1894;51.038;13.692;2022-12-13T05:28:03;16.63;;;9.40;;
3757;SDS011;1894;51.038;13.692;2022-12-13T05:30:51;17.87;;;8.60;;
3757;SDS011;1894;51.038;13.692;2022-12-13T05:33:19;21.27;;;9.30;;
3757;SDS011;1894;51.038;13.692;2022-12-13T05:35:48;14.97;;;8.50;;
3757;SDS011;1894;51.038;13.692;2022-12-13T05:38:21;15.50;;;8.97;;
3757;SDS011;1894;51.038;13.692;2022-12-13T05:40:48;13.37;;;7.73;;
3757;SDS011;1894;51.038;13.692;2022-12-13T05:43:16;13.17;;;7.10;;
3757;SDS011;1894;51.038;13.692;2022-12-13T05:45:47;11.60;;;7.87;;
3757;SDS011;1894;51.038;13.692;2022-12-13T05:48:14;10.83;;;7.23;;
3757;SDS011;1894;51.038;13.692;2022-12-13T05:50:50;14.57;;;7.67;;
3757;SDS011;1894;51.038;13.692;2022-12-13T05:53:36;12.60;;;7.30;;
3757;SDS011;1894;51.038;13.692;2022-12-13T05:56:08;14.13;;;7.07;;
3757;SDS011;1894;51.038;13.692;2022-12-13T05:58:37;12.27;;;7.57;;
3757;SDS011;1894;51.038;13.692;2022-12-13T06:01:07;16.40;;;8.50;;
3757;SDS011;1894;51.038;13.692;2022-12-13T06:03:39;15.23;;;8.83;;
3757;SDS011;1894;51.038;13.692;2022-12-13T06:06:08;15.40;;;8.03;;
3757;SDS011;1894;51.038;13.692;2022-12-13T06:08:37;18.10;;;9.50;;
3757;SDS011;1894;51.038;13.692;2022-12-13T06:11:05;18.40;;;9.90;;
3757;SDS011;1894;51.038;13.692;2022-12-13T06:13:48;19.00;;;10.83;;
3757;SDS011;1894;51.038;13.692;2022-12-13T06:16:26;17.53;;;9.80;;
3757;SDS011;1894;51.038;13.692;2022-12-13T06:18:54;19.20;;;9.37;;
3757;SDS011;1894;51.038;13.692;2022-12-13T06:21:30;24.77;;;12.23;;
3757;SDS011;1894;51.038;13.692;2022-12-13T06:24:11;19.27;;;10.43;;
3757;SDS011;1894;51.038;13.692;2022-12-13T06:26:42;41.47;;;14.20;;
3757;SDS011;1894;51.038;13.692;2022-12-13T06:29:15;47.83;;;16.97;;
3757;SDS011;1894;51.038;13.692;2022-12-13T06:31:54;72.40;;;22.53;;
3757;SDS011;1894;51.038;13.692;2022-12-13T06:34:29;65.40;;;21.10;;
3757;SDS011;1894;51.038;13.692;2022-12-13T06:37:00;59.93;;;16.53;;
3757;SDS011;1894;51.038;13.692;2022-12-13T06:39:29;55.43;;;16.50;;
3757;SDS011;1894;51.038;13.692;2022-12-13T06:41:59;58.23;;;16.17;;
3757;SDS011;1894;51.038;13.692;2022-12-13T06:44:32;46.73;;;16.10;;
3757;SDS011;1894;51.038;13.692;2022-12-13T06:47:00;47.00;;;14.27;;
3757;SDS011;1894;51.038;13.692;2022-12-13T06:49:37;34.20;;;12.50;;
3757;SDS011;1894;51.038;13.692;2022-12-13T06:52:08;37.80;;;12.77;;
3757;SDS011;1894;51.038;13.692;2022-12-13T06:54:40;31.23;;;12.93;;
3757;SDS011;1894;51.038;13.692;2022-12-13T06:57:09;29.37;;;11.53;;
3757;SDS011;1894;51.038;13.692;2022-12-13T06:59:37;32.63;;;12.23;;
3757;SDS011;1894;51.038;13.692;2022-12-13T07:02:05;21.73;;;10.13;;
3757;SDS011;1894;51.038;13.692;2022-12-13T07:04:51;18.00;;;8.67;;
3757;SDS011;1894;51.038;13.692;2022-12-13T07:07:19;17.70;;;9.97;;
3757;SDS011;1894;51.038;13.692;2022-12-13T07:09:46;23.23;;;10.57;;
3757;SDS011;1894;51.038;13.692;2022-12-13T07:12:14;22.67;;;9.00;;
3757;SDS011;1894;51.038;13.692;2022-12-13T07:14:41;15.90;;;9.17;;
3757;SDS011;1894;51.038;13.692;2022-12-13T07:17:08;14.73;;;7.70;;
3757;SDS011;1894;51.038;13.692;2022-12-13T07:19:36;17.90;;;9.60;;
3757;SDS011;1894;51.038;13.692;2022-12-13T07:22:03;16.80;;;7.67;;
3757;SDS011;1894;51.038;13.692;2022-12-13T07:24:31;14.80;;;8.53;;
3757;SDS011;1894;51.038;13.692;2022-12-13T07:27:00;14.80;;;7.93;;
3757;SDS011;1894;51.038;13.692;2022-12-13T07:29:29;15.30;;;8.30;;
3757;SDS011;1894;51.038;13.692;2022-12-13T07:31:56;16.30;;;9.20;;
3757;SDS011;1894;51.038;13.692;2022-12-13T07:34:28;9.83;;;7.43;;
3757;SDS011;1894;51.038;13.692;2022-12-13T07:36:56;17.37;;;8.87;;
3757;SDS011;1894;51.038;13.692;2022-12-13T07:39:23;17.17;;;8.97;;
3757;SDS011;1894;51.038;13.692;2022-12-13T07:41:53;18.73;;;9.07;;
3757;SDS011;1894;51.038;13.692;2022-12-13T07:44:25;17.00;;;8.40;;
3757;SDS011;1894;51.038;13.692;2022-12-13T07:46:52;19.23;;;9.90;;
3757;SDS011;1894;51.038;13.692;2022-12-13T07:49:19;16.20;;;9.50;;
3757;SDS011;1894;51.038;13.692;2022-12-13T07:51:46;14.60;;;8.57;;
3757;SDS011;1894;51.038;13.692;2022-12-13T07:54:14;13.90;;;7.47;;
3757;SDS011;1894;51.038;13.692;2022-12-13T07:56:41;14.67;;;8.23;;
3757;SDS011;1894;51.038;13.692;2022-12-13T07:59:09;15.00;;;8.87;;
3757;SDS011;1894;51.038;13.692;2022-12-13T08:01:36;17.93;;;8.43;;
3757;SDS011;1894;51.038;13.692;2022-12-13T08:04:04;19.47;;;9.67;;
3757;SDS011;1894;51.038;13.692;2022-12-13T08:06:35;16.90;;;7.70;;
3757;SDS011;1894;51.038;13.692;2022-12-13T08:09:03;19.20;;;8.53;;
3757;SDS011;1894;51.038;13.692;2022-12-13T08:11:31;16.07;;;8.30;;
3757;SDS011;1894;51.038;13.692;2022-12-13T08:13:58;14.47;;;8.23;;
3757;SDS011;1894;51.038;13.692;2022-12-13T08:16:27;14.40;;;8.30;;
3757;SDS011;1894;51.038;13.692;2022-12-13T08:18:56;16.47;;;8.60;;
3757;SDS011;1894;51.038;13.692;2022-12-13T08:21:38;16.23;;;8.70;;
3757;SDS011;1894;51.038;13.692;2022-12-13T08:24:27;10.80;;;7.03;;
3757;SDS011;1894;51.038;13.692;2022-12-13T08:27:00;16.60;;;7.20;;
3757;SDS011;1894;51.038;13.692;2022-12-13T08:29:31;10.97;;;6.73;;
3757;SDS011;1894;51.038;13.692;2022-12-13T08:32:05;13.87;;;6.97;;
3757;SDS011;1894;51.038;13.692;2022-12-13T08:34:35;13.57;;;8.10;;
3757;SDS011;1894;51.038;13.692;2022-12-13T08:37:03;15.00;;;6.80;;
3757;SDS011;1894;51.038;13.692;2022-12-13T08:39:32;10.83;;;6.77;;
3757;SDS011;1894;51.038;13.692;2022-12-13T08:42:05;13.50;;;7.50;;
3757;SDS011;1894;51.038;13.692;2022-12-13T08:44:44;12.03;;;7.00;;
3757;SDS011;1894;51.038;13.692;2022-12-13T08:47:18;11.60;;;7.07;;
3757;SDS011;1894;51.038;13.692;2022-12-13T08:49:55;12.20;;;6.70;;
3757;SDS011;1894;51.038;13.692;2022-12-13T08:52:30;12.07;;;7.50;;
3757;SDS011;1894;51.038;13.692;2022-12-13T08:55:06;13.27;;;7.80;;
3757;SDS011;1894;51.038;13.692;2022-12-13T08:57:39;12.23;;;7.47;;
3757;SDS011;1894;51.038;13.692;2022-12-13T09:00:09;11.07;;;7.40;;
3757;SDS011;1894;51.038;13.692;2022-12-13T09:02:45;11.10;;;7.40;;
3757;SDS011;1894;51.038;13.692;2022-12-13T09:05:13;12.70;;;8.50;;
3757;SDS011;1894;51.038;13.692;2022-12-13T09:08:00;11.30;;;6.80;;
3757;SDS011;1894;51.038;13.692;2022-12-13T09:10:56;11.40;;;6.93;;
3757;SDS011;1894;51.038;13.692;2022-12-13T09:13:36;17.63;;;8.20;;
3757;SDS011;1894;51.038;13.692;2022-12-13T09:16:13;14.50;;;9.30;;
3757;SDS011;1894;51.038;13.692;2022-12-13T09:18:50;15.00;;;8.00;;
3757;SDS011;1894;51.038;13.692;2022-12-13T09:21:21;17.40;;;8.23;;
3757;SDS011;1894;51.038;13.692;2022-12-13T09:23:57;10.70;;;6.73;;
3757;SDS011;1894;51.038;13.692;2022-12-13T09:26:27;11.60;;;7.67;;
3757;SDS011;1894;51.038;13.692;2022-12-13T09:29:03;13.37;;;8.40;;
3757;SDS011;1894;51.038;13.692;2022-12-13T09:31:36;12.53;;;7.93;;
3757;SDS011;1894;51.038;13.692;2022-12-13T09:34:06;12.53;;;7.03;;
3757;SDS011;1894;51.038;13.692;2022-12-13T09:36:35;14.93;;;8.67;;
3757;SDS011;1894;51.038;13.692;2022-12-13T09:39:05;15.70;;;8.60;;
3757;SDS011;1894;51.038;13.692;2022-12-13T09:41:33;11.20;;;8.23;;
3757;SDS011;1894;51.038;13.692;2022-12-13T09:44:10;15.70;;;8.63;;
3757;SDS011;1894;51.038;13.692;2022-12-13T09:47:11;14.60;;;9.33;;
3757;SDS011;1894;51.038;13.692;2022-12-13T09:50:00;13.97;;;9.30;;
3757;SDS011;1894;51.038;13.692;2022-12-13T09:52:41;14.63;;;8.50;;
3757;SDS011;1894;51.038;13.692;2022-12-13T09:55:15;14.70;;;8.23;;
3757;SDS011;1894;51.038;13.692;2022-12-13T09:57:50;15.20;;;8.80;;
3757;SDS011;1894;51.038;13.692;2022-12-13T10:00:20;24.63;;;12.13;;
3757;SDS011;1894;51.038;13.692;2022-12-13T10:02:54;17.90;;;9.30;;
3757;SDS011;1894;51.038;13.692;2022-12-13T10:08:10;15.10;;;9.40;;
3757;SDS011;1894;51.038;13.692;2022-12-13T10:10:40;12.80;;;8.30;;
3757;SDS011;1894;51.038;13.692;2022-12-13T10:13:14;23.97;;;11.73;;
3757;SDS011;1894;51.038;13.692;2022-12-13T10:15:47;17.60;;;8.50;;
3757;SDS011;1894;51.038;13.692;2022-12-13T10:18:32;16.33;;;9.97;;
3757;SDS011;1894;51.038;13.692;2022-12-13T10:21:07;17.20;;;11.40;;
3757;SDS011;1894;51.038;13.692;2022-12-13T10:23:39;20.50;;;10.80;;
3757;SDS011;1894;51.038;13.692;2022-12-13T10:26:27;19.17;;;10.67;;
3757;SDS011;1894;51.038;13.692;2022-12-13T10:29:03;17.70;;;10.30;;
3757;SDS011;1894;51.038;13.692;2022-12-13T10:31:42;18.07;;;10.43;;
3757;SDS011;1894;51.038;13.692;2022-12-13T10:36:56;22.40;;;11.20;;
3757;SDS011;1894;51.038;13.692;2022-12-13T10:39:35;18.00;;;11.63;;
3757;SDS011;1894;51.038;13.692;2022-12-13T10:42:16;18.03;;;11.70;;
3757;SDS011;1894;51.038;13.692;2022-12-13T10:45:08;14.53;;;10.17;;
3757;SDS011;1894;51.038;13.692;2022-12-13T10:47:49;19.10;;;11.77;;
3757;SDS011;1894;51.038;13.692;2022-12-13T10:50:24;17.53;;;11.23;;
3757;SDS011;1894;51.038;13.692;2022-12-13T10:52:54;20.57;;;10.63;;
3757;SDS011;1894;51.038;13.692;2022-12-13T10:55:30;18.37;;;11.10;;
3757;SDS011;1894;51.038;13.692;2022-12-13T10:58:04;21.50;;;12.17;;
3757;SDS011;1894;51.038;13.692;2022-12-13T11:00:36;19.83;;;11.77;;
3757;SDS011;1894;51.038;13.692;2022-12-13T11:03:26;19.73;;;12.23;;
3757;SDS011;1894;51.038;13.692;2022-12-13T11:06:06;21.67;;;13.07;;
3757;SDS011;1894;51.038;13.692;2022-12-13T11:08:43;20.93;;;12.33;;
3757;SDS011;1894;51.038;13.692;2022-12-13T11:11:10;20.03;;;11.97;;
3757;SDS011;1894;51.038;13.692;2022-12-13T11:14:12;19.23;;;12.30;;
3757;SDS011;1894;51.038;13.692;2022-12-13T11:16:38;18.10;;;11.67;;
3757;SDS011;1894;51.038;13.692;2022-12-13T11:19:31;18.77;;;12.67;;
3757;SDS011;1894;51.038;13.692;2022-12-13T11:22:24;16.70;;;11.80;;
3757;SDS011;1894;51.038;13.692;2022-12-13T11:28:08;16.83;;;11.77;;
3757;SDS011;1894;51.038;13.692;2022-12-13T11:42:16;13.00;;;10.20;;
3757;SDS011;1894;51.038;13.692;2022-12-13T11:45:00;11.27;;;8.07;;
3757;SDS011;1894;51.038;13.692;2022-12-13T11:47:49;10.10;;;9.10;;
3757;SDS011;1894;51.038;13.692;2022-12-13T11:50:39;10.73;;;9.27;;
3757;SDS011;1894;51.038;13.692;2022-12-13T11:53:29;14.10;;;9.10;;
3757;SDS011;1894;51.038;13.692;2022-12-13T11:56:20;8.83;;;7.57;;
3757;SDS011;1894;51.038;13.692;2022-12-13T11:58:55;10.80;;;8.00;;
3757;SDS011;1894;51.038;13.692;2022-12-13T12:04:34;8.20;;;6.70;;
3757;SDS011;1894;51.038;13.692;2022-12-13T12:08:08;12.00;;;9.60;;
3757;SDS011;1894;51.038;13.692;2022-12-13T12:13:06;9.87;;;7.73;;
3757;SDS011;1894;51.038;13.692;2022-12-13T12:15:45;9.97;;;7.57;;
3757;SDS011;1894;51.038;13.692;2022-12-13T12:18:41;7.57;;;6.53;;
3757;SDS011;1894;51.038;13.692;2022-12-13T12:30:11;7.60;;;6.90;;
3757;SDS011;1894;51.038;13.692;2022-12-13T12:41:23;10.37;;;8.57;;
3757;SDS011;1894;51.038;13.692;2022-12-13T12:49:56;7.73;;;6.93;;
3757;SDS011;1894;51.038;13.692;2022-12-13T12:58:55;10.27;;;8.63;;
3757;SDS011;1894;51.038;13.692;2022-12-13T13:04:34;11.27;;;10.07;;
3757;SDS011;1894;51.038;13.692;2022-12-13T13:07:13;9.80;;;8.17;;
3757;SDS011;1894;51.038;13.692;2022-12-13T13:09:54;11.60;;;8.47;;
3757;SDS011;1894;51.038;13.692;2022-12-13T13:12:42;9.63;;;8.47;;
3757;SDS011;1894;51.038;13.692;2022-12-13T13:17:59;11.33;;;7.73;;
3757;SDS011;1894;51.038;13.692;2022-12-13T13:20:27;10.73;;;9.60;;
3757;SDS011;1894;51.038;13.692;2022-12-13T13:22:55;12.37;;;8.93;;
3757;SDS011;1894;51.038;13.692;2022-12-13T13:25:44;8.30;;;7.27;;
3757;SDS011;1894;51.038;13.692;2022-12-13T13:28:40;8.27;;;7.47;;
3757;SDS011;1894;51.038;13.692;2022-12-13T13:31:07;7.40;;;6.63;;
3757;SDS011;1894;51.038;13.692;2022-12-13T13:33:59;9.97;;;8.20;;
3757;SDS011;1894;51.038;13.692;2022-12-13T13:36:47;9.10;;;8.30;;
3757;SDS011;1894;51.038;13.692;2022-12-13T13:39:18;11.37;;;9.10;;
3757;SDS011;1894;51.038;13.692;2022-12-13T13:42:20;19.73;;;14.60;;
3757;SDS011;1894;51.038;13.692;2022-12-13T13:48:36;10.80;;;8.47;;
3757;SDS011;1894;51.038;13.692;2022-12-13T14:29:26;23.43;;;11.47;;
3757;SDS011;1894;51.038;13.692;2022-12-13T14:31:57;16.07;;;10.20;;
3757;SDS011;1894;51.038;13.692;2022-12-13T14:34:25;20.67;;;11.27;;
3757;SDS011;1894;51.038;13.692;2022-12-13T14:37:02;29.13;;;12.13;;
3757;SDS011;1894;51.038;13.692;2022-12-13T14:39:42;23.20;;;11.77;;
3757;SDS011;1894;51.038;13.692;2022-12-13T14:42:19;17.77;;;11.40;;
3757;SDS011;1894;51.038;13.692;2022-12-13T14:45:10;19.40;;;10.30;;
3757;SDS011;1894;51.038;13.692;2022-12-13T14:48:02;15.03;;;9.70;;
3757;SDS011;1894;51.038;13.692;2022-12-13T14:50:36;18.27;;;9.17;;
3757;SDS011;1894;51.038;13.692;2022-12-13T14:53:06;18.23;;;10.80;;
3757;SDS011;1894;51.038;13.692;2022-12-13T14:56:00;20.03;;;10.83;;
3757;SDS011;1894;51.038;13.692;2022-12-13T14:59:01;23.00;;;10.90;;
3757;SDS011;1894;51.038;13.692;2022-12-13T15:01:36;21.30;;;11.37;;
3757;SDS011;1894;51.038;13.692;2022-12-13T15:04:17;20.00;;;12.03;;
3757;SDS011;1894;51.038;13.692;2022-12-13T15:06:49;30.17;;;14.87;;
3757;SDS011;1894;51.038;13.692;2022-12-13T15:09:41;19.20;;;10.70;;
3757;SDS011;1894;51.038;13.692;2022-12-13T15:12:14;16.23;;;9.40;;
3757;SDS011;1894;51.038;13.692;2022-12-13T15:15:36;14.70;;;8.97;;
3757;SDS011;1894;51.038;13.692;2022-12-13T15:20:53;16.70;;;8.67;;
3757;SDS011;1894;51.038;13.692;2022-12-13T15:23:30;17.50;;;10.50;;
3757;SDS011;1894;51.038;13.692;2022-12-13T15:26:13;20.20;;;9.77;;
3757;SDS011;1894;51.038;13.692;2022-12-13T15:29:13;21.50;;;11.17;;
3757;SDS011;1894;51.038;13.692;2022-12-13T15:31:45;17.70;;;10.90;;
3757;SDS011;1894;51.038;13.692;2022-12-13T15:34:22;17.60;;;9.87;;
3757;SDS011;1894;51.038;13.692;2022-12-13T15:36:57;19.27;;;10.20;;
3757;SDS011;1894;51.038;13.692;2022-12-13T15:39:28;19.00;;;9.70;;
3757;SDS011;1894;51.038;13.692;2022-12-13T15:41:58;15.00;;;9.03;;
3757;SDS011;1894;51.038;13.692;2022-12-13T15:44:27;13.20;;;8.73;;
3757;SDS011;1894;51.038;13.692;2022-12-13T15:47:03;14.23;;;8.87;;
3757;SDS011;1894;51.038;13.692;2022-12-13T15:49:58;15.47;;;7.60;;
3757;SDS011;1894;51.038;13.692;2022-12-13T15:57:31;17.37;;;10.23;;
3757;SDS011;1894;51.038;13.692;2022-12-13T16:00:05;14.40;;;9.57;;
3757;SDS011;1894;51.038;13.692;2022-12-13T16:02:59;17.10;;;9.60;;
3757;SDS011;1894;51.038;13.692;2022-12-13T16:05:48;19.10;;;11.27;;
3757;SDS011;1894;51.038;13.692;2022-12-13T16:08:37;18.07;;;10.73;;
3757;SDS011;1894;51.038;13.692;2022-12-13T16:11:06;20.97;;;11.00;;
3757;SDS011;1894;51.038;13.692;2022-12-13T16:13:35;21.07;;;11.23;;
3757;SDS011;1894;51.038;13.692;2022-12-13T16:18:57;34.20;;;17.07;;
3757;SDS011;1894;51.038;13.692;2022-12-13T16:21:26;33.93;;;15.37;;
3757;SDS011;1894;51.038;13.692;2022-12-13T16:23:55;25.93;;;13.83;;
3757;SDS011;1894;51.038;13.692;2022-12-13T16:26:24;22.37;;;11.70;;
3757;SDS011;1894;51.038;13.692;2022-12-13T16:28:55;18.10;;;11.67;;
3757;SDS011;1894;51.038;13.692;2022-12-13T16:31:27;22.63;;;12.00;;
3757;SDS011;1894;51.038;13.692;2022-12-13T16:34:01;20.27;;;11.63;;
3757;SDS011;1894;51.038;13.692;2022-12-13T16:36:30;16.03;;;10.20;;
3757;SDS011;1894;51.038;13.692;2022-12-13T16:38:57;18.47;;;9.73;;
3757;SDS011;1894;51.038;13.692;2022-12-13T16:41:25;18.50;;;10.50;;
3757;SDS011;1894;51.038;13.692;2022-12-13T16:43:56;21.57;;;11.63;;
3757;SDS011;1894;51.038;13.692;2022-12-13T16:46:27;32.17;;;14.03;;
3757;SDS011;1894;51.038;13.692;2022-12-13T16:49:17;23.80;;;11.60;;
3757;SDS011;1894;51.038;13.692;2022-12-13T16:51:47;24.83;;;12.23;;
3757;SDS011;1894;51.038;13.692;2022-12-13T16:54:16;19.90;;;11.87;;
3757;SDS011;1894;51.038;13.692;2022-12-13T16:56:47;20.10;;;12.10;;
3757;SDS011;1894;51.038;13.692;2022-12-13T16:59:16;19.07;;;10.30;;
3757;SDS011;1894;51.038;13.692;2022-12-13T17:01:48;19.57;;;10.50;;
3757;SDS011;1894;51.038;13.692;2022-12-13T17:04:18;23.67;;;12.17;;
3757;SDS011;1894;51.038;13.692;2022-12-13T17:06:48;22.00;;;12.30;;
3757;SDS011;1894;51.038;13.692;2022-12-13T17:09:20;19.50;;;11.87;;
3757;SDS011;1894;51.038;13.692;2022-12-13T17:11:48;22.37;;;12.33;;
3757;SDS011;1894;51.038;13.692;2022-12-13T17:14:15;22.70;;;12.67;;
3757;SDS011;1894;51.038;13.692;2022-12-13T17:16:42;25.40;;;12.50;;
3757;SDS011;1894;51.038;13.692;2022-12-13T17:19:10;26.90;;;14.60;;
3757;SDS011;1894;51.038;13.692;2022-12-13T17:21:39;34.20;;;15.70;;
3757;SDS011;1894;51.038;13.692;2022-12-13T17:24:07;32.37;;;16.73;;
3757;SDS011;1894;51.038;13.692;2022-12-13T17:26:34;37.70;;;20.13;;
3757;SDS011;1894;51.038;13.692;2022-12-13T17:29:01;34.33;;;18.17;;
3757;SDS011;1894;51.038;13.692;2022-12-13T17:31:28;46.27;;;18.93;;
3757;SDS011;1894;51.038;13.692;2022-12-13T17:34:01;44.60;;;16.87;;
3757;SDS011;1894;51.038;13.692;2022-12-13T17:36:29;30.70;;;14.60;;
3757;SDS011;1894;51.038;13.692;2022-12-13T17:38:57;35.80;;;16.10;;